Time;durP1;ratioP1;P1;durP2;ratioP2;P2;SDS_P1;SDS_P2;PMS_P1;PMS_P2;Temp;Humidity;BMP_temperature;BMP_pressure;BME280_temperature;BME280_humidity;BME280_pressure;Samples;Min_cycle;Max_cycle;Signal;HPM_P1;HPM_P2
2022/12/12 00:02:03;;;;;;;4.67;2.13;;;;;;;-145.69;100.00;52773.16;5093701;28;20194;-81
2022/12/12 00:04:29;;;;;;;3.57;2.33;;;;;;;-145.69;100.00;52796.91;5093872;28;20197;-81
2022/12/12 00:06:56;;;;;;;5.10;2.97;;;;;;;-145.69;100.00;52789.00;5094025;28;20201;-81
2022/12/12 00:09:22;;;;;;;4.17;2.53;;;;;;;-145.69;100.00;52806.81;5093492;28;20770;-81
2022/12/12 00:11:49;;;;;;;5.10;2.70;;;;;;;-145.69;100.00;52828.59;5093702;28;20198;-81
2022/12/12 00:14:15;;;;;;;7.70;3.47;;;;;;;-145.69;100.00;52747.41;5093765;28;20198;-81
2022/12/12 00:16:43;;;;;;;6.53;2.93;;;;;;;-145.69;100.00;52810.78;5093786;28;20198;-81
2022/12/12 00:19:10;;;;;;;7.93;2.97;;;;;;;-145.69;100.00;52757.31;5093096;28;20225;-81
2022/12/12 00:21:37;;;;;;;9.57;3.20;;;;;;;-145.69;100.00;52775.13;5093660;28;20206;-81
2022/12/12 00:24:04;;;;;;;6.20;3.03;;;;;;;-145.69;100.00;52806.81;5093601;28;20194;-80
2022/12/12 00:26:33;;;;;;;6.20;3.33;;;;;;;-145.69;100.00;52812.75;5093777;28;20220;-80
2022/12/12 00:29:01;;;;;;;5.37;2.57;;;;;;;-145.69;100.00;52842.47;5093192;28;20191;-80
2022/12/12 00:31:28;;;;;;;3.93;2.17;;;;;;;-145.69;100.00;52816.72;5092907;28;20190;-81
2022/12/12 00:33:56;;;;;;;10.37;3.13;;;;;;;-145.69;100.00;52785.03;5093389;28;20202;-81
2022/12/12 00:36:25;;;;;;;6.93;3.17;;;;;;;-145.69;100.00;52794.94;5091456;28;20248;-80
2022/12/12 00:38:53;;;;;;;7.90;2.40;;;;;;;-145.69;100.00;52816.72;5075031;28;20614;-80
2022/12/12 00:41:20;;;;;;;7.20;3.43;;;;;;;-145.69;100.00;52785.03;5072690;28;20207;-80
2022/12/12 00:43:47;;;;;;;10.17;3.33;;;;;;;-145.69;100.00;52808.78;5073120;28;20199;-80
2022/12/12 00:46:14;;;;;;;5.17;3.00;;;;;;;-145.69;100.00;52794.94;5073036;28;20198;-80
2022/12/12 00:48:41;;;;;;;6.20;3.13;;;;;;;-145.69;100.00;52790.97;5074407;28;20199;-80
2022/12/12 00:51:11;;;;;;;9.68;3.95;;;;;;;-145.69;100.00;52810.78;5091809;28;20429;-79
2022/12/12 00:53:39;;;;;;;10.43;3.03;;;;;;;-145.69;100.00;52785.03;5092794;28;20682;-80
2022/12/12 00:56:06;;;;;;;5.73;2.83;;;;;;;-145.69;100.00;52806.81;5093168;28;20194;-80
2022/12/12 00:58:33;;;;;;;6.77;3.07;;;;;;;-145.69;100.00;52775.13;5092174;28;20589;-80
2022/12/12 01:01:05;;;;;;;6.57;3.00;;;;;;;-145.69;100.00;52806.81;5072921;28;20206;-80
2022/12/12 01:03:32;;;;;;;7.13;2.50;;;;;;;-145.69;100.00;52796.91;5072509;28;20246;-80
2022/12/12 01:05:58;;;;;;;4.73;3.07;;;;;;;-145.69;100.00;52737.50;5072810;28;20198;-80
2022/12/12 01:08:26;;;;;;;6.70;2.90;;;;;;;-145.69;100.00;52802.84;5076973;28;20201;-80
2022/12/12 01:10:53;;;;;;;7.00;2.60;;;;;;;-145.69;100.00;52798.91;5092392;28;20198;-80
2022/12/12 01:13:19;;;;;;;4.17;2.60;;;;;;;-145.69;100.00;52808.78;5092672;28;20198;-80
2022/12/12 01:15:46;;;;;;;6.30;2.90;;;;;;;-145.69;100.00;52808.78;5096856;28;20200;-80
2022/12/12 01:18:13;;;;;;;4.30;2.27;;;;;;;-145.69;100.00;52800.88;5096386;28;20580;-80
2022/12/12 01:20:41;;;;;;;5.47;2.70;;;;;;;-145.69;100.00;52808.78;5097283;28;20209;-81
2022/12/12 01:23:08;;;;;;;3.17;2.17;;;;;;;-145.69;100.00;52789.00;5097078;28;20202;-81
2022/12/12 01:25:36;;;;;;;7.97;2.27;;;;;;;-145.69;100.00;52765.22;5096662;28;20201;-79
2022/12/12 01:28:02;;;;;;;4.47;2.17;;;;;;;-145.69;100.00;52804.84;5096971;28;20208;-80
2022/12/12 01:30:32;;;;;;;4.93;2.37;;;;;;;-145.69;100.00;52775.13;5096657;28;20202;-80
2022/12/12 01:32:59;;;;;;;5.63;2.67;;;;;;;-145.69;100.00;52822.66;5088509;28;20206;-81
2022/12/12 01:35:26;;;;;;;6.53;2.73;;;;;;;-145.69;100.00;52804.84;5076202;28;20234;-81
2022/12/12 01:37:53;;;;;;;2.87;1.80;;;;;;;-145.69;100.00;52775.13;5076322;28;20227;-80
2022/12/12 01:40:22;;;;;;;3.60;1.97;;;;;;;-145.69;100.00;52796.91;5087933;28;20194;-80
2022/12/12 01:42:51;;;;;;;4.33;2.27;;;;;;;-145.69;100.00;52792.94;5096560;28;20198;-80
2022/12/12 01:45:53;;;;;;;7.73;2.37;;;;;;;-145.69;100.00;52832.56;5096577;28;20198;-79
2022/12/12 01:48:21;;;;;;;3.40;2.10;;;;;;;-145.69;100.00;52785.03;5087747;28;20201;-80
2022/12/12 01:50:48;;;;;;;4.63;2.00;;;;;;;-145.69;100.00;52830.59;5096472;28;20560;-80
2022/12/12 01:53:17;;;;;;;3.33;2.17;;;;;;;-145.69;100.00;52828.59;5096280;28;20202;-80
2022/12/12 01:55:45;;;;;;;3.17;1.87;;;;;;;-145.69;100.00;52777.09;5096123;28;20537;-80
2022/12/12 01:58:14;;;;;;;5.47;2.37;;;;;;;-145.69;100.00;52743.44;5096397;28;20226;-80
2022/12/12 02:00:41;;;;;;;2.93;1.97;;;;;;;-145.69;100.00;52777.09;5096393;28;20208;-80
2022/12/12 02:03:08;;;;;;;5.43;2.23;;;;;;;-145.69;100.00;52816.72;5096347;28;20206;-80
2022/12/12 02:05:38;;;;;;;2.27;1.50;;;;;;;-145.69;100.00;52783.06;5096264;28;20202;-80
2022/12/12 02:08:07;;;;;;;2.20;1.53;;;;;;;-145.69;100.00;52777.09;5096023;28;20210;-79
2022/12/12 02:10:34;;;;;;;5.90;2.00;;;;;;;-145.69;100.00;52781.06;5095062;28;20195;-79
2022/12/12 02:13:03;;;;;;;5.93;2.13;;;;;;;-145.69;100.00;52790.97;5095974;28;20534;-80
2022/12/12 02:15:41;;;;;;;5.83;2.07;;;;;;;-145.69;100.00;52767.19;5095572;28;20680;-79
2022/12/12 02:18:11;;;;;;;4.00;2.20;;;;;;;-145.69;100.00;52800.88;5095702;28;20583;-79
2022/12/12 02:20:48;;;;;;;2.67;1.93;;;;;;;-145.69;100.00;52800.88;5095160;28;20665;-79
2022/12/12 02:23:50;;;;;;;5.83;1.87;;;;;;;-145.69;100.00;52789.00;5096078;28;20201;-80
2022/12/12 02:26:44;;;;;;;2.97;2.00;;;;;;;-145.69;100.00;52789.00;5094330;28;20205;-80
2022/12/12 02:29:38;;;;;;;2.73;2.27;;;;;;;-145.69;100.00;52808.78;5095609;28;20198;-80
2022/12/12 02:32:15;;;;;;;3.40;1.70;;;;;;;-145.69;100.00;52773.16;5095703;28;20649;-80
2022/12/12 02:34:51;;;;;;;3.17;1.87;;;;;;;-145.69;100.00;52777.09;5095354;28;20221;-80
2022/12/12 02:37:30;;;;;;;5.47;2.30;;;;;;;-145.69;100.00;52781.06;5095453;28;20649;-80
2022/12/12 02:40:06;;;;;;;5.83;2.40;;;;;;;-145.69;100.00;52808.78;5094982;28;20217;-80
2022/12/12 02:42:41;;;;;;;4.00;2.10;;;;;;;-145.69;100.00;52816.72;5095314;28;20204;-80
2022/12/12 02:45:14;;;;;;;4.43;1.93;;;;;;;-145.69;100.00;52800.88;5095414;28;20660;-80
2022/12/12 02:47:47;;;;;;;2.17;1.70;;;;;;;-145.69;100.00;52800.88;5095144;28;20198;-80
2022/12/12 02:50:19;;;;;;;3.27;2.13;;;;;;;-145.69;100.00;52781.06;5095639;28;20198;-80
2022/12/12 02:52:47;;;;;;;1.73;1.63;;;;;;;-145.69;100.00;52806.81;5095200;28;20199;-80
2022/12/12 02:55:14;;;;;;;4.93;2.13;;;;;;;-145.69;100.00;52808.78;5095398;28;20205;-80
2022/12/12 02:57:41;;;;;;;2.53;2.10;;;;;;;-145.69;100.00;52816.72;5095236;28;20201;-80
2022/12/12 03:00:12;;;;;;;2.73;1.90;;;;;;;-145.69;100.00;52840.47;5094995;28;20226;-79
2022/12/12 03:09:07;;;;;;;6.23;2.23;;;;;;;-145.69;100.00;52796.91;5094740;28;20201;-80
2022/12/12 03:11:46;;;;;;;2.73;2.10;;;;;;;-145.69;100.00;52792.94;5094862;28;20197;-80
2022/12/12 03:14:19;;;;;;;2.90;1.83;;;;;;;-145.69;100.00;52779.09;5094289;28;20656;-80
2022/12/12 03:16:55;;;;;;;4.37;2.40;;;;;;;-145.69;100.00;52802.84;5094516;28;20212;-80
2022/12/12 03:19:26;;;;;;;4.77;2.77;;;;;;;-145.69;100.00;52796.91;5094246;28;20218;-80
2022/12/12 03:22:00;;;;;;;4.93;2.30;;;;;;;-145.69;100.00;52802.84;5093868;28;20209;-80
2022/12/12 03:24:32;;;;;;;6.90;3.17;;;;;;;-145.69;100.00;52767.19;5094586;28;20649;-80
2022/12/12 03:27:02;;;;;;;4.50;2.10;;;;;;;-145.69;100.00;52822.66;5094528;28;20206;-80
2022/12/12 03:29:34;;;;;;;5.23;2.40;;;;;;;-145.69;100.00;52783.06;5094401;28;20198;-80
2022/12/12 03:32:05;;;;;;;6.47;2.53;;;;;;;-145.69;100.00;52806.81;5094645;28;20198;-79
2022/12/12 03:34:38;;;;;;;5.20;2.47;;;;;;;-145.69;100.00;52773.16;5094545;28;20198;-80
2022/12/12 03:37:09;;;;;;;7.70;2.60;;;;;;;-145.69;100.00;52824.63;5094109;28;20289;-81
2022/12/12 03:39:40;;;;;;;5.03;2.70;;;;;;;-145.69;100.00;52816.72;5093743;28;20240;-81
2022/12/12 03:42:13;;;;;;;4.37;2.23;;;;;;;-145.69;100.00;52790.97;5093635;28;20601;-80
2022/12/12 03:44:46;;;;;;;4.13;2.97;;;;;;;-145.69;100.00;52792.94;5094534;28;20206;-81
2022/12/12 03:47:17;;;;;;;4.90;2.43;;;;;;;-145.69;100.00;52777.09;5093872;28;20557;-81
2022/12/12 03:49:49;;;;;;;4.93;2.20;;;;;;;-145.69;100.00;52818.69;5093956;28;20201;-80
2022/12/12 03:52:19;;;;;;;5.20;2.37;;;;;;;-145.69;100.00;52757.31;5094081;28;20202;-80
2022/12/12 03:54:51;;;;;;;3.73;2.10;;;;;;;-145.69;100.00;52796.91;5094336;28;20202;-80
2022/12/12 03:57:22;;;;;;;4.10;2.47;;;;;;;-145.69;100.00;52771.16;5094144;28;20247;-80
2022/12/12 03:59:54;;;;;;;5.63;2.63;;;;;;;-145.69;100.00;52789.00;5094142;28;20236;-80
2022/12/12 04:02:27;;;;;;;4.13;2.63;;;;;;;-145.69;100.00;52812.75;5093538;28;20205;-80
2022/12/12 04:05:03;;;;;;;6.03;2.73;;;;;;;-145.69;100.00;52814.75;5093753;28;20213;-80
2022/12/12 04:07:33;;;;;;;4.17;2.33;;;;;;;-145.69;100.00;52806.81;5093796;28;20220;-80
2022/12/12 04:12:58;;;;;;;3.27;2.30;;;;;;;-145.69;100.00;52789.00;5093735;28;20560;-80
2022/12/12 04:15:46;;;;;;;3.83;1.83;;;;;;;-145.69;100.00;52798.91;5093477;28;20206;-81
2022/12/12 04:18:19;;;;;;;3.20;2.17;;;;;;;-145.69;100.00;52808.78;5093665;28;20288;-80
2022/12/12 04:23:51;;;;;;;2.83;2.00;;;;;;;-145.69;100.00;52767.19;5093628;28;20216;-80
2022/12/12 04:26:39;;;;;;;4.37;2.17;;;;;;;-145.69;100.00;52828.59;5093608;28;20225;-79
2022/12/12 04:29:13;;;;;;;4.57;2.57;;;;;;;-145.69;100.00;52789.00;5093619;28;20293;-80
2022/12/12 04:31:47;;;;;;;6.25;2.53;;;;;;;-145.69;100.00;52796.91;5092871;28;20524;-80
2022/12/12 04:34:22;;;;;;;7.00;2.93;;;;;;;-145.69;100.00;52794.94;5093382;28;20209;-79
2022/12/12 04:36:50;;;;;;;4.07;2.33;;;;;;;-145.69;100.00;52755.31;5093298;28;20205;-80
2022/12/12 04:39:20;;;;;;;4.30;2.00;;;;;;;-145.69;100.00;52790.97;5093459;28;20233;-80
2022/12/12 04:41:50;;;;;;;2.73;1.60;;;;;;;-145.69;100.00;52836.53;5093068;28;20202;-81
2022/12/12 04:44:19;;;;;;;2.73;2.03;;;;;;;-145.69;100.00;52816.72;5093224;28;20599;-80
2022/12/12 04:46:50;;;;;;;7.30;2.20;;;;;;;-145.69;100.00;52787.00;5093086;28;20198;-80
2022/12/12 04:49:21;;;;;;;7.03;1.97;;;;;;;-145.69;100.00;52824.63;5092226;28;20198;-80
2022/12/12 04:51:53;;;;;;;5.93;2.33;;;;;;;-145.69;100.00;52785.03;5092613;28;20292;-80
2022/12/12 04:54:24;;;;;;;3.93;2.00;;;;;;;-145.69;100.00;52812.75;5093205;28;20683;-80
2022/12/12 04:56:56;;;;;;;3.40;2.27;;;;;;;-145.69;100.00;52796.91;5092982;28;20303;-80
2022/12/12 04:59:23;;;;;;;3.87;1.90;;;;;;;-145.69;100.00;52773.16;5092401;28;20299;-79
2022/12/12 05:01:55;;;;;;;3.07;2.00;;;;;;;-145.69;100.00;52792.94;5092756;28;20657;-79
2022/12/12 05:04:27;;;;;;;8.80;2.33;;;;;;;-145.69;100.00;52824.63;5093202;28;20209;-79
2022/12/12 05:06:59;;;;;;;5.53;2.50;;;;;;;-145.69;100.00;52804.84;5092993;28;20287;-79
2022/12/12 05:09:26;;;;;;;3.63;2.23;;;;;;;-145.69;100.00;52834.53;5093037;28;20726;-79
2022/12/12 05:11:53;;;;;;;3.93;2.07;;;;;;;-145.69;100.00;52790.97;5093127;28;20198;-79
2022/12/12 05:14:20;;;;;;;3.40;1.77;;;;;;;-145.69;100.00;52765.22;5092811;28;20683;-79
2022/12/12 05:16:49;;;;;;;3.33;2.07;;;;;;;-145.69;100.00;52804.84;5093125;28;20209;-79
2022/12/12 05:19:16;;;;;;;2.30;1.53;;;;;;;-145.69;100.00;52759.28;5092418;28;20665;-79
2022/12/12 05:21:42;;;;;;;5.67;2.50;;;;;;;-145.69;100.00;52806.81;5092754;28;20194;-79
2022/12/12 05:24:10;;;;;;;4.23;2.40;;;;;;;-145.69;100.00;52792.94;5092576;28;20194;-79
2022/12/12 05:26:37;;;;;;;5.17;1.87;;;;;;;-145.69;100.00;52777.09;5092042;28;20649;-79
2022/12/12 05:29:05;;;;;;;6.50;2.40;;;;;;;-145.69;100.00;52769.19;5092668;28;20225;-79
2022/12/12 05:31:31;;;;;;;4.23;2.37;;;;;;;-145.69;100.00;52783.06;5092535;28;20201;-79
2022/12/12 05:33:58;;;;;;;2.83;1.67;;;;;;;-145.69;100.00;52757.31;5092479;28;20198;-79
2022/12/12 05:36:24;;;;;;;3.60;2.07;;;;;;;-145.69;100.00;52765.22;5092584;28;20230;-79
2022/12/12 05:38:52;;;;;;;9.43;2.10;;;;;;;-145.69;100.00;52785.03;5092272;28;20247;-78
2022/12/12 05:41:19;;;;;;;4.50;2.30;;;;;;;-145.69;100.00;52773.16;5084735;28;20190;-79
2022/12/12 05:43:46;;;;;;;4.33;2.70;;;;;;;-145.69;100.00;52812.75;5079306;28;20682;-79
2022/12/12 05:46:12;;;;;;;5.23;2.20;;;;;;;-145.69;100.00;52796.91;5072152;28;20203;-79
2022/12/12 05:48:40;;;;;;;3.77;2.30;;;;;;;-145.69;100.00;52804.84;5072477;28;20202;-79
2022/12/12 05:51:06;;;;;;;3.23;2.27;;;;;;;-145.69;100.00;52789.00;5072312;28;20199;-78
2022/12/12 05:53:33;;;;;;;5.63;2.43;;;;;;;-145.69;100.00;52828.59;5072550;28;20202;-80
2022/12/12 05:56:00;;;;;;;3.27;2.07;;;;;;;-145.69;100.00;52798.91;5082078;28;20205;-79
2022/12/12 05:58:27;;;;;;;5.37;2.53;;;;;;;-145.69;100.00;52804.84;5092262;28;20194;-79
2022/12/12 06:00:54;;;;;;;4.50;2.87;;;;;;;-145.69;100.00;52785.03;5094932;28;20300;-79
2022/12/12 06:03:20;;;;;;;7.27;2.87;;;;;;;-145.69;100.00;52802.84;5096247;28;20564;-79
2022/12/12 06:05:47;;;;;;;6.97;2.60;;;;;;;-145.69;100.00;52822.66;5096201;28;20198;-79
2022/12/12 06:08:13;;;;;;;5.93;2.90;;;;;;;-145.69;100.00;52802.84;5096094;28;20191;-80
2022/12/12 06:10:40;;;;;;;6.33;3.23;;;;;;;-145.69;100.00;52796.91;5095788;28;20206;-79
2022/12/12 06:13:06;;;;;;;5.23;2.50;;;;;;;-145.69;100.00;52794.94;5096148;28;20205;-80
2022/12/12 06:15:34;;;;;;;7.80;3.00;;;;;;;-145.69;100.00;52828.59;5096014;28;20202;-80
2022/12/12 06:18:01;;;;;;;8.50;2.80;;;;;;;-145.69;100.00;52783.06;5095476;28;20194;-79
2022/12/12 06:20:29;;;;;;;6.53;3.17;;;;;;;-145.69;100.00;52761.25;5095827;28;20237;-79
2022/12/12 06:22:56;;;;;;;5.87;2.90;;;;;;;-145.69;100.00;52814.75;5095760;28;20605;-79
2022/12/12 06:25:22;;;;;;;5.03;2.73;;;;;;;-145.69;100.00;52812.75;5095708;28;20186;-80
2022/12/12 06:27:49;;;;;;;8.47;2.53;;;;;;;-145.69;100.00;52753.34;5095337;28;20200;-80
2022/12/12 06:30:15;;;;;;;10.23;2.63;;;;;;;-145.69;100.00;52794.94;5095827;28;20202;-80
2022/12/12 06:32:43;;;;;;;4.57;2.67;;;;;;;-145.69;100.00;52794.94;5095622;28;20201;-79
2022/12/12 06:35:11;;;;;;;4.53;2.27;;;;;;;-145.69;100.00;52783.06;5095257;28;20221;-80
2022/12/12 06:37:38;;;;;;;3.20;2.20;;;;;;;-145.69;100.00;52800.88;5095330;28;20683;-79
2022/12/12 06:40:06;;;;;;;4.90;2.50;;;;;;;-145.69;100.00;52794.94;5095027;28;20684;-80
2022/12/12 06:42:32;;;;;;;3.03;2.40;;;;;;;-145.69;100.00;52785.03;5095609;28;20537;-80
2022/12/12 06:44:59;;;;;;;2.90;1.90;;;;;;;-145.69;100.00;52790.97;5095239;28;20206;-80
2022/12/12 06:47:25;;;;;;;4.50;2.40;;;;;;;-145.69;100.00;52796.91;5095143;28;20624;-80
2022/12/12 06:49:53;;;;;;;4.23;2.10;;;;;;;-145.69;100.00;52824.63;5095648;28;20206;-79
2022/12/12 06:52:20;;;;;;;2.93;1.83;;;;;;;-145.69;100.00;52802.84;5095463;28;20194;-80
2022/12/12 06:54:46;;;;;;;6.90;2.27;;;;;;;-145.69;100.00;52832.56;5095195;28;20205;-79
2022/12/12 06:57:13;;;;;;;3.87;2.10;;;;;;;-145.69;100.00;52818.69;5095115;28;20198;-79
2022/12/12 06:59:39;;;;;;;5.37;3.17;;;;;;;-145.69;100.00;52818.69;5094791;28;20575;-79
2022/12/12 07:02:06;;;;;;;4.43;2.93;;;;;;;-145.69;100.00;52796.91;5094847;28;20202;-80
2022/12/12 07:04:33;;;;;;;3.43;2.13;;;;;;;-145.69;100.00;52812.75;5095243;28;20259;-80
2022/12/12 07:07:00;;;;;;;3.57;1.97;;;;;;;-145.69;100.00;52800.88;5095296;28;20202;-80
2022/12/12 07:09:28;;;;;;;6.93;2.43;;;;;;;-145.69;100.00;52792.94;5094854;28;20572;-79
2022/12/12 07:11:55;;;;;;;4.03;2.13;;;;;;;-145.69;100.00;52781.06;5094136;28;20198;-79
2022/12/12 07:14:21;;;;;;;3.30;2.00;;;;;;;-145.69;100.00;52783.06;5094173;28;20201;-80
2022/12/12 07:16:47;;;;;;;6.03;2.70;;;;;;;-145.69;100.00;52783.06;5095115;28;20198;-79
2022/12/12 07:19:14;;;;;;;6.43;2.50;;;;;;;-145.69;100.00;52781.06;5094411;28;20685;-79
2022/12/12 07:21:40;;;;;;;3.97;2.40;;;;;;;-145.69;100.00;52777.09;5094551;28;20202;-80
2022/12/12 07:24:08;;;;;;;4.63;2.17;;;;;;;-145.69;100.00;52787.00;5094829;28;20205;-79
2022/12/12 07:26:35;;;;;;;4.10;2.20;;;;;;;-145.69;100.00;52773.16;5094699;28;20212;-80
2022/12/12 07:29:04;;;;;;;15.87;4.83;;;;;;;-145.69;100.00;52830.59;5094395;28;20210;-78
2022/12/12 07:31:30;;;;;;;7.37;3.40;;;;;;;-145.69;100.00;52808.78;5094426;28;20206;-80
2022/12/12 07:33:57;;;;;;;8.07;3.73;;;;;;;-145.69;100.00;52785.03;5094167;28;20220;-80
2022/12/12 07:36:23;;;;;;;6.40;2.83;;;;;;;-145.69;100.00;52804.84;5091389;28;20240;-80
2022/12/12 07:38:50;;;;;;;2.73;1.77;;;;;;;-145.69;100.00;52767.19;5094600;28;22092;-79
2022/12/12 07:41:19;;;;;;;3.80;2.20;;;;;;;-145.69;100.00;52800.88;5094146;28;20225;-80
2022/12/12 07:43:46;;;;;;;5.00;2.80;;;;;;;-145.69;100.00;52787.00;5094061;28;20721;-80
2022/12/12 07:46:14;;;;;;;6.00;2.70;;;;;;;-145.69;100.00;52790.97;5094247;28;20575;-80
2022/12/12 07:48:41;;;;;;;8.27;3.00;;;;;;;-145.69;100.00;52794.94;5094154;28;20213;-80
2022/12/12 07:51:08;;;;;;;6.25;3.47;;;;;;;-145.69;100.00;52828.59;5094077;28;20437;-80
2022/12/12 07:53:34;;;;;;;6.60;3.00;;;;;;;-145.69;100.00;52777.09;5094159;28;20202;-80
2022/12/12 07:56:04;;;;;;;5.50;2.97;;;;;;;-145.69;100.00;52794.94;5094026;28;20198;-80
2022/12/12 07:58:32;;;;;;;4.53;2.73;;;;;;;-145.69;100.00;52804.84;5094566;28;20202;-80
2022/12/12 08:00:59;;;;;;;7.37;3.63;;;;;;;-145.69;100.00;52785.03;5093856;28;20226;-80
2022/12/12 08:03:25;;;;;;;9.83;2.87;;;;;;;-145.69;100.00;52777.09;5093368;28;20281;-80
2022/12/12 08:05:52;;;;;;;6.95;3.15;;;;;;;-145.69;100.00;52761.25;5093724;28;20444;-80
2022/12/12 08:08:19;;;;;;;7.20;3.17;;;;;;;-145.69;100.00;52767.19;5093735;28;20203;-80
2022/12/12 08:10:45;;;;;;;8.37;3.57;;;;;;;-145.69;100.00;52773.16;5093202;28;20190;-80
2022/12/12 08:13:12;;;;;;;7.67;3.20;;;;;;;-145.69;100.00;52792.94;5093759;28;20221;-81
2022/12/12 08:15:39;;;;;;;9.70;3.10;;;;;;;-145.69;100.00;52796.91;5093947;28;20198;-80
2022/12/12 08:18:06;;;;;;;4.63;3.00;;;;;;;-145.69;100.00;52785.03;5093004;28;20205;-81
2022/12/12 08:20:33;;;;;;;13.30;3.50;;;;;;;-145.69;100.00;52796.91;5093389;28;20697;-81
2022/12/12 08:22:59;;;;;;;7.67;4.00;;;;;;;-145.69;100.00;52794.94;5093739;28;20198;-82
2022/12/12 08:25:26;;;;;;;8.57;3.13;;;;;;;-145.69;100.00;52810.78;5093141;28;20239;-81
2022/12/12 08:27:52;;;;;;;7.10;3.10;;;;;;;-145.69;100.00;52765.22;5093399;28;20213;-82
2022/12/12 08:30:19;;;;;;;5.83;3.43;;;;;;;-145.69;100.00;52787.00;5093527;28;20194;-81
2022/12/12 08:32:47;;;;;;;7.27;3.00;;;;;;;-145.69;100.00;52789.00;5093529;28;20229;-81
2022/12/12 08:35:13;;;;;;;5.87;3.30;;;;;;;-145.69;100.00;52773.16;5092640;28;20636;-80
2022/12/12 08:37:40;;;;;;;6.63;3.80;;;;;;;-145.69;100.00;52785.03;5093649;28;20201;-80
2022/12/12 08:40:07;;;;;;;12.27;5.33;;;;;;;-145.69;100.00;52761.25;5093185;28;20234;-80
2022/12/12 08:42:34;;;;;;;9.47;4.50;;;;;;;-145.69;100.00;52773.16;5093217;28;20649;-80
2022/12/12 08:45:00;;;;;;;14.10;5.33;;;;;;;-145.69;100.00;52783.06;5093390;28;20198;-80
2022/12/12 08:47:28;;;;;;;8.87;3.73;;;;;;;-145.69;100.00;52792.94;5093217;28;20201;-80
2022/12/12 08:49:56;;;;;;;6.93;3.33;;;;;;;-145.69;100.00;52771.16;5092910;28;20721;-80
2022/12/12 08:52:22;;;;;;;6.23;3.50;;;;;;;-145.69;100.00;52808.78;5092942;28;20556;-80
2022/12/12 08:54:49;;;;;;;8.03;3.97;;;;;;;-145.69;100.00;52783.06;5093398;28;20198;-80
2022/12/12 08:57:15;;;;;;;9.83;4.20;;;;;;;-145.69;100.00;52771.16;5093303;28;20202;-79
2022/12/12 08:59:41;;;;;;;6.43;3.53;;;;;;;-145.69;100.00;52785.03;5092831;28;20572;-81
2022/12/12 09:02:10;;;;;;;12.40;4.63;;;;;;;-145.69;100.00;52781.06;5093160;28;20211;-79
2022/12/12 09:04:37;;;;;;;12.30;4.73;;;;;;;-145.69;100.00;52785.03;5093532;28;20191;-85
2022/12/12 09:07:05;;;;;;;14.50;4.57;;;;;;;-145.69;100.00;52741.47;5093767;28;20209;-81
2022/12/12 09:09:32;;;;;;;8.50;5.03;;;;;;;-145.69;100.00;52775.13;5092712;28;20680;-82
2022/12/12 09:11:58;;;;;;;11.20;4.90;;;;;;;-145.69;100.00;52777.09;5093096;28;20190;-83
2022/12/12 09:14:25;;;;;;;11.30;5.47;;;;;;;-145.69;100.00;52761.25;5092740;28;20195;-80
2022/12/12 09:16:51;;;;;;;9.63;4.83;;;;;;;-145.69;100.00;52789.00;5092942;28;20209;-81
2022/12/12 09:19:18;;;;;;;11.57;5.73;;;;;;;-145.69;100.00;52761.25;5092209;28;20205;-79
2022/12/12 09:21:45;;;;;;;13.05;5.55;;;;;;;-145.69;100.00;52769.19;5091369;28;20479;-81
2022/12/12 09:24:13;;;;;;;9.97;5.17;;;;;;;-145.69;100.00;52773.16;5093075;28;20202;-81
2022/12/12 09:26:39;;;;;;;10.23;4.53;;;;;;;-145.69;100.00;52777.09;5093026;28;20202;-81
2022/12/12 09:29:05;;;;;;;10.80;4.57;;;;;;;-145.69;100.00;52761.25;5092704;28;20194;-81
2022/12/12 09:31:32;;;;;;;11.83;5.83;;;;;;;-145.69;100.00;52794.94;5092738;28;20292;-81
2022/12/12 09:33:58;;;;;;;18.90;7.93;;;;;;;-145.69;100.00;52781.06;5092616;28;20202;-80
2022/12/12 09:36:25;;;;;;;22.47;9.77;;;;;;;-145.69;100.00;52757.31;5096390;28;20238;-80
2022/12/12 09:38:51;;;;;;;16.10;7.30;;;;;;;-145.69;100.00;52761.25;5096699;28;20248;-81
2022/12/12 09:41:23;;;;;;;13.37;6.37;;;;;;;-145.69;100.00;52755.31;5095879;28;20581;-80
2022/12/12 09:43:55;;;;;;;14.40;6.67;;;;;;;-145.69;100.00;52775.13;5096842;28;20197;-80
2022/12/12 09:46:30;;;;;;;16.03;5.90;;;;;;;-145.69;100.00;52737.50;5096520;28;20194;-80
2022/12/12 09:49:04;;;;;;;10.90;4.90;;;;;;;-145.69;100.00;52792.94;5096754;28;20293;-80
2022/12/12 09:51:31;;;;;;;18.87;6.30;;;;;;;-145.69;100.00;52761.25;5096045;28;20197;-80
2022/12/12 09:53:58;;;;;;;11.47;5.57;;;;;;;-145.69;100.00;52751.34;5096204;28;20209;-80
2022/12/12 09:56:33;;;;;;;11.23;5.03;;;;;;;-145.69;100.00;52745.41;5096277;28;20648;-82
2022/12/12 09:59:08;;;;;;;14.63;5.30;;;;;;;-145.69;100.00;52745.41;5096758;28;20239;-81
2022/12/12 10:01:41;;;;;;;13.53;5.30;;;;;;;-145.69;100.00;52798.91;5096575;28;20229;-81
2022/12/12 10:04:20;;;;;;;15.53;6.73;;;;;;;-145.69;100.00;52775.13;5096226;28;20224;-81
2022/12/12 10:06:51;;;;;;;14.63;6.30;;;;;;;-145.69;100.00;52769.19;5096548;28;20206;-82
2022/12/12 10:09:47;;;;;;;25.83;11.83;;;;;;;-145.69;100.00;52737.50;5096007;28;20190;-81
2022/12/12 10:12:18;;;;;;;19.83;8.53;;;;;;;-145.69;100.00;52777.09;5095471;28;20200;-83
2022/12/12 10:14:48;;;;;;;21.73;11.13;;;;;;;-145.69;100.00;52757.31;5096186;28;20198;-83
2022/12/12 10:17:18;;;;;;;23.83;11.90;;;;;;;-145.69;100.00;52753.34;5096347;28;20720;-83
2022/12/12 10:19:50;;;;;;;18.73;8.40;;;;;;;-145.69;100.00;52775.13;5096433;28;20194;-83
2022/12/12 10:22:25;;;;;;;23.27;10.40;;;;;;;-145.69;100.00;52741.47;5090769;28;20289;-82
2022/12/12 10:24:57;;;;;;;20.70;9.20;;;;;;;-145.69;100.00;52763.25;5096157;28;20668;-82
2022/12/12 10:27:25;;;;;;;21.27;7.93;;;;;;;-145.69;100.00;52790.97;5096034;28;20202;-82
2022/12/12 10:29:53;;;;;;;16.77;8.80;;;;;;;-145.69;100.00;52763.25;5095077;28;20985;-83
2022/12/12 10:32:32;;;;;;;20.70;7.97;;;;;;;-145.69;100.00;52785.03;5096372;28;20198;-87
2022/12/12 10:35:11;;;;;;;20.77;8.83;;;;;;;-145.69;100.00;52753.34;5096955;28;20240;-85
2022/12/12 10:37:49;;;;;;;19.70;8.87;;;;;;;-145.69;100.00;52761.25;5096436;28;20194;-82
2022/12/12 10:40:29;;;;;;;23.33;9.57;;;;;;;-145.69;100.00;52761.25;5096483;28;20711;-85
2022/12/12 10:43:03;;;;;;;28.47;11.03;;;;;;;-145.69;100.00;52753.34;5095494;28;20285;-85
2022/12/12 10:45:47;;;;;;;23.60;10.30;;;;;;;-145.69;100.00;52735.50;5096910;28;20202;-85
2022/12/12 10:48:14;;;;;;;10.03;4.23;;;;;;;-145.69;100.00;52763.25;5095225;28;20674;-84
2022/12/12 10:50:44;;;;;;;11.10;3.90;;;;;;;-145.69;100.00;52727.59;5095750;28;20208;-85
2022/12/12 10:53:12;;;;;;;7.70;3.27;;;;;;;-145.69;100.00;52719.66;5095468;28;20198;-84
2022/12/12 10:55:44;;;;;;;6.83;3.53;;;;;;;-145.69;100.00;52785.03;5090119;28;20203;-83
2022/12/12 10:58:12;;;;;;;7.80;3.33;;;;;;;-145.69;100.00;52767.19;5076184;28;20628;-83
2022/12/12 11:00:41;;;;;;;7.57;3.70;;;;;;;-145.69;100.00;52753.34;5079669;28;20229;-83
2022/12/12 11:03:18;;;;;;;9.20;3.33;;;;;;;-145.69;100.00;52741.47;5075006;28;20203;-83
2022/12/12 11:05:45;;;;;;;6.17;3.50;;;;;;;-145.69;100.00;52719.66;5077244;28;20203;-82
2022/12/12 11:08:20;;;;;;;8.90;3.40;;;;;;;-145.69;100.00;52737.50;5078510;28;20241;-84
2022/12/12 11:11:00;;;;;;;6.97;2.60;;;;;;;-145.69;100.00;52767.19;5091290;28;20227;-84
2022/12/12 11:13:28;;;;;;;7.33;3.20;;;;;;;-145.69;100.00;52737.50;5095608;28;20190;-84
2022/12/12 11:15:58;;;;;;;6.60;3.07;;;;;;;-145.69;100.00;52771.16;5096418;28;20201;-84
2022/12/12 11:18:26;;;;;;;8.60;3.93;;;;;;;-145.69;100.00;52773.16;5096807;28;20194;-83
2022/12/12 11:21:01;;;;;;;4.67;2.87;;;;;;;-145.69;100.00;52757.31;5095078;28;20692;-84
2022/12/12 11:23:29;;;;;;;7.23;3.30;;;;;;;-145.69;100.00;52773.16;5095244;28;20206;-83
2022/12/12 11:25:58;;;;;;;5.70;2.47;;;;;;;-145.69;100.00;52737.50;5094847;28;20198;-84
2022/12/12 11:28:29;;;;;;;7.97;3.17;;;;;;;-145.69;100.00;52749.38;5095311;28;20204;-83
2022/12/12 11:30:56;;;;;;;4.67;2.53;;;;;;;-145.69;100.00;52755.31;5097107;28;20202;-83